sensor_id;sensor_type;location;lat;lon;timestamp;P1;durP1;ratioP1;P2;durP2;ratioP2
43664;SDS011;29263;48.172;11.484;2024-03-08T00:00:13;11.33;;;6.57;;
43664;SDS011;29263;48.172;11.484;2024-03-08T00:02:39;12.20;;;6.50;;
43664;SDS011;29263;48.172;11.484;2024-03-08T00:05:06;13.37;;;7.23;;
43664;SDS011;29263;48.172;11.484;2024-03-08T00:07:36;11.43;;;6.57;;
43664;SDS011;29263;48.172;11.484;2024-03-08T00:10:02;11.57;;;6.27;;
43664;SDS011;29263;48.172;11.484;2024-03-08T00:12:29;11.63;;;6.90;;
43664;SDS011;29263;48.172;11.484;2024-03-08T00:14:55;12.70;;;6.77;;
43664;SDS011;29263;48.172;11.484;2024-03-08T00:17:21;13.23;;;6.10;;
43664;SDS011;29263;48.172;11.484;2024-03-08T00:19:50;13.32;;;7.25;;
43664;SDS011;29263;48.172;11.484;2024-03-08T00:22:16;11.17;;;6.70;;
43664;SDS011;29263;48.172;11.484;2024-03-08T00:24:42;13.07;;;6.60;;
43664;SDS011;29263;48.172;11.484;2024-03-08T00:27:08;12.33;;;6.83;;
43664;SDS011;29263;48.172;11.484;2024-03-08T00:29:34;10.77;;;6.80;;
43664;SDS011;29263;48.172;11.484;2024-03-08T00:32:00;12.37;;;6.13;;
43664;SDS011;29263;48.172;11.484;2024-03-08T00:34:26;11.67;;;6.87;;
43664;SDS011;29263;48.172;11.484;2024-03-08T00:36:51;14.17;;;7.07;;
43664;SDS011;29263;48.172;11.484;2024-03-08T00:39:17;14.20;;;6.60;;
43664;SDS011;29263;48.172;11.484;2024-03-08T00:41:45;14.03;;;7.17;;
43664;SDS011;29263;48.172;11.484;2024-03-08T00:44:11;13.13;;;7.53;;
43664;SDS011;29263;48.172;11.484;2024-03-08T00:46:37;15.33;;;7.73;;
43664;SDS011;29263;48.172;11.484;2024-03-08T00:49:03;13.90;;;6.90;;
43664;SDS011;29263;48.172;11.484;2024-03-08T00:51:29;16.47;;;7.63;;
43664;SDS011;29263;48.172;11.484;2024-03-08T00:53:54;14.33;;;7.80;;
43664;SDS011;29263;48.172;11.484;2024-03-08T00:56:20;14.77;;;7.33;;
43664;SDS011;29263;48.172;11.484;2024-03-08T00:58:46;14.63;;;7.13;;
43664;SDS011;29263;48.172;11.484;2024-03-08T01:01:12;13.80;;;7.80;;
43664;SDS011;29263;48.172;11.484;2024-03-08T01:03:42;13.63;;;6.85;;
43664;SDS011;29263;48.172;11.484;2024-03-08T01:06:08;16.27;;;8.17;;
43664;SDS011;29263;48.172;11.484;2024-03-08T01:08:34;13.17;;;7.30;;
43664;SDS011;29263;48.172;11.484;2024-03-08T01:10:59;11.90;;;6.67;;
43664;SDS011;29263;48.172;11.484;2024-03-08T01:13:25;15.07;;;7.97;;
43664;SDS011;29263;48.172;11.484;2024-03-08T01:15:51;14.43;;;7.57;;
43664;SDS011;29263;48.172;11.484;2024-03-08T01:18:16;16.07;;;7.73;;
43664;SDS011;29263;48.172;11.484;2024-03-08T01:20:42;14.30;;;7.20;;
43664;SDS011;29263;48.172;11.484;2024-03-08T01:23:07;13.17;;;6.50;;
43664;SDS011;29263;48.172;11.484;2024-03-08T01:25:33;13.20;;;7.20;;
43664;SDS011;29263;48.172;11.484;2024-03-08T01:27:59;13.60;;;7.27;;
43664;SDS011;29263;48.172;11.484;2024-03-08T01:30:25;14.47;;;7.63;;
43664;SDS011;29263;48.172;11.484;2024-03-08T01:32:50;14.80;;;7.53;;
43664;SDS011;29263;48.172;11.484;2024-03-08T01:35:16;13.43;;;7.37;;
43664;SDS011;29263;48.172;11.484;2024-03-08T01:37:43;15.07;;;7.40;;
43664;SDS011;29263;48.172;11.484;2024-03-08T01:40:09;12.40;;;7.93;;
43664;SDS011;29263;48.172;11.484;2024-03-08T01:42:34;14.40;;;7.50;;
43664;SDS011;29263;48.172;11.484;2024-03-08T01:45:03;14.37;;;7.73;;
43664;SDS011;29263;48.172;11.484;2024-03-08T01:47:32;13.13;;;7.37;;
43664;SDS011;29263;48.172;11.484;2024-03-08T01:49:59;13.30;;;7.93;;
43664;SDS011;29263;48.172;11.484;2024-03-08T01:54:56;11.73;;;6.60;;
43664;SDS011;29263;48.172;11.484;2024-03-08T01:57:25;14.18;;;7.78;;
43664;SDS011;29263;48.172;11.484;2024-03-08T01:59:52;15.03;;;7.30;;
43664;SDS011;29263;48.172;11.484;2024-03-08T02:02:20;14.88;;;7.60;;
43664;SDS011;29263;48.172;11.484;2024-03-08T02:04:47;16.03;;;7.73;;
43664;SDS011;29263;48.172;11.484;2024-03-08T02:07:13;14.87;;;7.40;;
43664;SDS011;29263;48.172;11.484;2024-03-08T02:09:39;13.50;;;7.17;;
43664;SDS011;29263;48.172;11.484;2024-03-08T02:12:05;12.97;;;6.87;;
43664;SDS011;29263;48.172;11.484;2024-03-08T02:14:33;15.13;;;7.57;;
43664;SDS011;29263;48.172;11.484;2024-03-08T02:17:01;17.00;;;8.30;;
43664;SDS011;29263;48.172;11.484;2024-03-08T02:19:27;15.80;;;7.88;;
43664;SDS011;29263;48.172;11.484;2024-03-08T02:21:53;14.50;;;7.97;;
43664;SDS011;29263;48.172;11.484;2024-03-08T02:24:18;13.20;;;7.67;;
43664;SDS011;29263;48.172;11.484;2024-03-08T02:26:44;13.30;;;6.97;;
43664;SDS011;29263;48.172;11.484;2024-03-08T02:29:10;15.47;;;8.50;;
43664;SDS011;29263;48.172;11.484;2024-03-08T02:31:36;15.70;;;7.97;;
43664;SDS011;29263;48.172;11.484;2024-03-08T02:34:01;18.13;;;9.60;;
43664;SDS011;29263;48.172;11.484;2024-03-08T02:36:27;16.23;;;8.67;;
43664;SDS011;29263;48.172;11.484;2024-03-08T02:38:52;14.20;;;8.00;;
43664;SDS011;29263;48.172;11.484;2024-03-08T02:41:20;15.47;;;8.70;;
43664;SDS011;29263;48.172;11.484;2024-03-08T02:43:46;15.37;;;8.03;;
43664;SDS011;29263;48.172;11.484;2024-03-08T02:46:11;17.87;;;8.60;;
43664;SDS011;29263;48.172;11.484;2024-03-08T02:48:37;14.77;;;8.17;;
43664;SDS011;29263;48.172;11.484;2024-03-08T02:51:03;16.13;;;8.97;;
43664;SDS011;29263;48.172;11.484;2024-03-08T02:53:28;15.60;;;7.63;;
43664;SDS011;29263;48.172;11.484;2024-03-08T02:55:54;18.87;;;8.50;;
43664;SDS011;29263;48.172;11.484;2024-03-08T02:58:20;15.27;;;8.43;;
43664;SDS011;29263;48.172;11.484;2024-03-08T03:00:45;15.63;;;8.30;;
43664;SDS011;29263;48.172;11.484;2024-03-08T03:03:11;15.10;;;7.77;;
43664;SDS011;29263;48.172;11.484;2024-03-08T03:05:36;16.33;;;7.80;;
43664;SDS011;29263;48.172;11.484;2024-03-08T03:08:03;16.10;;;7.83;;
43664;SDS011;29263;48.172;11.484;2024-03-08T03:10:33;15.43;;;8.40;;
43664;SDS011;29263;48.172;11.484;2024-03-08T03:13:00;15.97;;;9.07;;
43664;SDS011;29263;48.172;11.484;2024-03-08T03:15:25;17.23;;;8.37;;
43664;SDS011;29263;48.172;11.484;2024-03-08T03:17:51;15.87;;;7.87;;
43664;SDS011;29263;48.172;11.484;2024-03-08T03:20:17;13.37;;;7.73;;
43664;SDS011;29263;48.172;11.484;2024-03-08T03:22:51;15.27;;;8.20;;
43664;SDS011;29263;48.172;11.484;2024-03-08T03:25:20;18.73;;;8.40;;
43664;SDS011;29263;48.172;11.484;2024-03-08T03:27:50;14.60;;;7.83;;
43664;SDS011;29263;48.172;11.484;2024-03-08T03:30:21;13.87;;;7.57;;
43664;SDS011;29263;48.172;11.484;2024-03-08T03:32:50;16.17;;;8.53;;
43664;SDS011;29263;48.172;11.484;2024-03-08T03:35:19;16.30;;;9.20;;
43664;SDS011;29263;48.172;11.484;2024-03-08T03:37:45;17.45;;;8.75;;
43664;SDS011;29263;48.172;11.484;2024-03-08T03:40:32;13.63;;;7.67;;
43664;SDS011;29263;48.172;11.484;2024-03-08T03:45:28;19.10;;;7.63;;
43664;SDS011;29263;48.172;11.484;2024-03-08T03:47:54;15.60;;;8.50;;
43664;SDS011;29263;48.172;11.484;2024-03-08T03:50:20;17.73;;;8.83;;
43664;SDS011;29263;48.172;11.484;2024-03-08T03:52:47;17.80;;;7.83;;
43664;SDS011;29263;48.172;11.484;2024-03-08T03:55:12;17.07;;;9.03;;
43664;SDS011;29263;48.172;11.484;2024-03-08T03:57:39;15.20;;;8.50;;
43664;SDS011;29263;48.172;11.484;2024-03-08T04:00:05;17.00;;;9.10;;
43664;SDS011;29263;48.172;11.484;2024-03-08T04:02:34;18.03;;;8.87;;
43664;SDS011;29263;48.172;11.484;2024-03-08T04:05:04;14.57;;;8.40;;
43664;SDS011;29263;48.172;11.484;2024-03-08T04:07:31;16.20;;;8.33;;
43664;SDS011;29263;48.172;11.484;2024-03-08T04:09:56;14.30;;;8.10;;
43664;SDS011;29263;48.172;11.484;2024-03-08T04:12:22;19.10;;;8.60;;
43664;SDS011;29263;48.172;11.484;2024-03-08T04:14:48;15.47;;;8.40;;
43664;SDS011;29263;48.172;11.484;2024-03-08T04:17:13;18.97;;;8.73;;
43664;SDS011;29263;48.172;11.484;2024-03-08T04:19:39;19.10;;;9.30;;
43664;SDS011;29263;48.172;11.484;2024-03-08T04:22:05;17.03;;;8.77;;
43664;SDS011;29263;48.172;11.484;2024-03-08T04:24:32;16.53;;;8.80;;
43664;SDS011;29263;48.172;11.484;2024-03-08T04:26:58;19.00;;;9.27;;
43664;SDS011;29263;48.172;11.484;2024-03-08T04:29:24;17.83;;;9.67;;
43664;SDS011;29263;48.172;11.484;2024-03-08T04:31:49;19.83;;;10.07;;
43664;SDS011;29263;48.172;11.484;2024-03-08T04:34:19;17.77;;;9.10;;
43664;SDS011;29263;48.172;11.484;2024-03-08T04:36:47;16.83;;;8.70;;
43664;SDS011;29263;48.172;11.484;2024-03-08T04:39:13;16.03;;;8.87;;
43664;SDS011;29263;48.172;11.484;2024-03-08T04:41:40;17.47;;;9.80;;
43664;SDS011;29263;48.172;11.484;2024-03-08T04:44:08;18.97;;;9.73;;
43664;SDS011;29263;48.172;11.484;2024-03-08T04:46:37;19.02;;;10.32;;
43664;SDS011;29263;48.172;11.484;2024-03-08T04:49:03;16.03;;;8.50;;
43664;SDS011;29263;48.172;11.484;2024-03-08T04:51:29;18.83;;;9.73;;
43664;SDS011;29263;48.172;11.484;2024-03-08T04:53:54;20.47;;;9.00;;
43664;SDS011;29263;48.172;11.484;2024-03-08T04:56:22;18.33;;;9.20;;
43664;SDS011;29263;48.172;11.484;2024-03-08T04:58:47;17.13;;;9.30;;
43664;SDS011;29263;48.172;11.484;2024-03-08T05:01:13;18.70;;;9.20;;
43664;SDS011;29263;48.172;11.484;2024-03-08T05:03:39;18.43;;;10.40;;
43664;SDS011;29263;48.172;11.484;2024-03-08T05:06:04;21.13;;;10.37;;
43664;SDS011;29263;48.172;11.484;2024-03-08T05:08:30;18.93;;;10.17;;
43664;SDS011;29263;48.172;11.484;2024-03-08T05:10:56;19.73;;;10.80;;
43664;SDS011;29263;48.172;11.484;2024-03-08T05:13:22;19.23;;;10.33;;
43664;SDS011;29263;48.172;11.484;2024-03-08T05:15:48;20.57;;;12.20;;
43664;SDS011;29263;48.172;11.484;2024-03-08T05:18:15;22.47;;;10.97;;
43664;SDS011;29263;48.172;11.484;2024-03-08T05:20:41;19.97;;;10.50;;
43664;SDS011;29263;48.172;11.484;2024-03-08T05:23:07;20.70;;;10.63;;
43664;SDS011;29263;48.172;11.484;2024-03-08T05:25:33;21.90;;;11.73;;
43664;SDS011;29263;48.172;11.484;2024-03-08T05:27:59;22.53;;;12.10;;
43664;SDS011;29263;48.172;11.484;2024-03-08T05:30:24;21.83;;;11.50;;
43664;SDS011;29263;48.172;11.484;2024-03-08T05:32:50;22.90;;;12.00;;
43664;SDS011;29263;48.172;11.484;2024-03-08T05:35:15;21.70;;;12.00;;
43664;SDS011;29263;48.172;11.484;2024-03-08T05:37:41;19.83;;;11.07;;
43664;SDS011;29263;48.172;11.484;2024-03-08T05:40:07;21.40;;;11.10;;
43664;SDS011;29263;48.172;11.484;2024-03-08T05:42:36;23.60;;;10.48;;
43664;SDS011;29263;48.172;11.484;2024-03-08T05:45:03;24.80;;;11.13;;
43664;SDS011;29263;48.172;11.484;2024-03-08T05:47:29;22.03;;;11.53;;
43664;SDS011;29263;48.172;11.484;2024-03-08T05:49:55;22.23;;;11.97;;
43664;SDS011;29263;48.172;11.484;2024-03-08T05:52:20;19.53;;;10.67;;
43664;SDS011;29263;48.172;11.484;2024-03-08T05:54:46;22.13;;;11.40;;
43664;SDS011;29263;48.172;11.484;2024-03-08T05:57:12;20.63;;;11.07;;
43664;SDS011;29263;48.172;11.484;2024-03-08T05:59:39;20.40;;;10.33;;
43664;SDS011;29263;48.172;11.484;2024-03-08T06:02:04;22.17;;;11.57;;
43664;SDS011;29263;48.172;11.484;2024-03-08T06:04:30;22.90;;;11.77;;
43664;SDS011;29263;48.172;11.484;2024-03-08T06:06:56;19.40;;;10.47;;
43664;SDS011;29263;48.172;11.484;2024-03-08T06:09:23;20.93;;;10.50;;
43664;SDS011;29263;48.172;11.484;2024-03-08T06:11:51;22.73;;;10.80;;
43664;SDS011;29263;48.172;11.484;2024-03-08T06:14:18;20.47;;;11.03;;
43664;SDS011;29263;48.172;11.484;2024-03-08T06:16:45;24.00;;;11.83;;
43664;SDS011;29263;48.172;11.484;2024-03-08T06:19:11;17.70;;;9.57;;
43664;SDS011;29263;48.172;11.484;2024-03-08T06:21:38;23.17;;;11.27;;
43664;SDS011;29263;48.172;11.484;2024-03-08T06:24:04;21.23;;;10.23;;
43664;SDS011;29263;48.172;11.484;2024-03-08T06:26:30;21.87;;;10.73;;
43664;SDS011;29263;48.172;11.484;2024-03-08T06:28:56;19.37;;;10.00;;
43664;SDS011;29263;48.172;11.484;2024-03-08T06:31:22;20.73;;;10.73;;
43664;SDS011;29263;48.172;11.484;2024-03-08T06:33:48;17.90;;;9.67;;
43664;SDS011;29263;48.172;11.484;2024-03-08T06:36:19;20.00;;;10.90;;
43664;SDS011;29263;48.172;11.484;2024-03-08T06:38:46;19.83;;;10.93;;
43664;SDS011;29263;48.172;11.484;2024-03-08T06:41:15;18.67;;;10.43;;
43664;SDS011;29263;48.172;11.484;2024-03-08T06:43:44;16.73;;;8.77;;
43664;SDS011;29263;48.172;11.484;2024-03-08T06:46:11;19.67;;;10.07;;
43664;SDS011;29263;48.172;11.484;2024-03-08T06:48:39;17.40;;;9.67;;
43664;SDS011;29263;48.172;11.484;2024-03-08T06:51:05;19.00;;;9.67;;
43664;SDS011;29263;48.172;11.484;2024-03-08T06:53:31;22.50;;;10.73;;
43664;SDS011;29263;48.172;11.484;2024-03-08T06:55:57;22.57;;;10.00;;
43664;SDS011;29263;48.172;11.484;2024-03-08T06:58:23;18.33;;;9.27;;
43664;SDS011;29263;48.172;11.484;2024-03-08T07:00:49;18.90;;;10.33;;
43664;SDS011;29263;48.172;11.484;2024-03-08T07:03:17;24.13;;;9.90;;
43664;SDS011;29263;48.172;11.484;2024-03-08T07:05:43;19.20;;;10.23;;
43664;SDS011;29263;48.172;11.484;2024-03-08T07:08:08;18.93;;;10.30;;
43664;SDS011;29263;48.172;11.484;2024-03-08T07:10:34;19.13;;;9.80;;
43664;SDS011;29263;48.172;11.484;2024-03-08T07:13:02;17.13;;;9.53;;
43664;SDS011;29263;48.172;11.484;2024-03-08T07:15:28;19.60;;;9.90;;
43664;SDS011;29263;48.172;11.484;2024-03-08T07:17:53;18.37;;;10.27;;
43664;SDS011;29263;48.172;11.484;2024-03-08T07:20:19;21.77;;;9.37;;
43664;SDS011;29263;48.172;11.484;2024-03-08T07:22:46;19.60;;;10.57;;
43664;SDS011;29263;48.172;11.484;2024-03-08T07:25:19;19.37;;;9.83;;
43664;SDS011;29263;48.172;11.484;2024-03-08T07:27:49;21.13;;;10.13;;
43664;SDS011;29263;48.172;11.484;2024-03-08T07:30:18;21.30;;;9.57;;
43664;SDS011;29263;48.172;11.484;2024-03-08T07:33:03;19.50;;;9.83;;
43664;SDS011;29263;48.172;11.484;2024-03-08T07:35:31;21.20;;;9.63;;
43664;SDS011;29263;48.172;11.484;2024-03-08T07:37:57;20.20;;;9.50;;
43664;SDS011;29263;48.172;11.484;2024-03-08T07:40:24;19.60;;;10.13;;
43664;SDS011;29263;48.172;11.484;2024-03-08T07:42:50;18.83;;;9.90;;
43664;SDS011;29263;48.172;11.484;2024-03-08T07:45:17;18.23;;;9.63;;
43664;SDS011;29263;48.172;11.484;2024-03-08T07:47:43;18.23;;;9.23;;
43664;SDS011;29263;48.172;11.484;2024-03-08T07:50:08;20.33;;;9.77;;
43664;SDS011;29263;48.172;11.484;2024-03-08T07:52:35;17.60;;;9.43;;
43664;SDS011;29263;48.172;11.484;2024-03-08T07:55:01;15.37;;;7.97;;
43664;SDS011;29263;48.172;11.484;2024-03-08T07:57:28;18.93;;;9.03;;
43664;SDS011;29263;48.172;11.484;2024-03-08T07:59:54;20.27;;;9.87;;
43664;SDS011;29263;48.172;11.484;2024-03-08T08:02:20;19.73;;;9.67;;
43664;SDS011;29263;48.172;11.484;2024-03-08T08:04:46;16.73;;;9.10;;
43664;SDS011;29263;48.172;11.484;2024-03-08T08:07:12;16.80;;;9.57;;
43664;SDS011;29263;48.172;11.484;2024-03-08T08:09:39;17.50;;;9.07;;
43664;SDS011;29263;48.172;11.484;2024-03-08T08:12:05;19.00;;;9.23;;
43664;SDS011;29263;48.172;11.484;2024-03-08T08:14:32;16.57;;;9.37;;
43664;SDS011;29263;48.172;11.484;2024-03-08T08:16:57;18.60;;;9.53;;
43664;SDS011;29263;48.172;11.484;2024-03-08T08:19:28;17.70;;;8.87;;
43664;SDS011;29263;48.172;11.484;2024-03-08T08:21:54;18.20;;;9.53;;
43664;SDS011;29263;48.172;11.484;2024-03-08T08:24:19;16.17;;;8.50;;
43664;SDS011;29263;48.172;11.484;2024-03-08T08:26:46;17.03;;;9.30;;
43664;SDS011;29263;48.172;11.484;2024-03-08T08:29:12;19.43;;;10.10;;
43664;SDS011;29263;48.172;11.484;2024-03-08T08:31:38;19.63;;;9.37;;
43664;SDS011;29263;48.172;11.484;2024-03-08T08:34:03;20.13;;;10.00;;
43664;SDS011;29263;48.172;11.484;2024-03-08T08:36:29;18.23;;;9.33;;
43664;SDS011;29263;48.172;11.484;2024-03-08T08:38:56;18.43;;;9.63;;
43664;SDS011;29263;48.172;11.484;2024-03-08T08:41:23;20.57;;;9.73;;
43664;SDS011;29263;48.172;11.484;2024-03-08T08:43:49;19.63;;;10.30;;
43664;SDS011;29263;48.172;11.484;2024-03-08T08:46:17;17.73;;;8.97;;
43664;SDS011;29263;48.172;11.484;2024-03-08T08:48:43;16.25;;;8.77;;
43664;SDS011;29263;48.172;11.484;2024-03-08T08:51:10;19.90;;;9.83;;
43664;SDS011;29263;48.172;11.484;2024-03-08T08:53:40;19.83;;;9.97;;
43664;SDS011;29263;48.172;11.484;2024-03-08T08:56:08;22.50;;;10.80;;
43664;SDS011;29263;48.172;11.484;2024-03-08T08:58:34;19.90;;;9.87;;
43664;SDS011;29263;48.172;11.484;2024-03-08T09:01:00;19.90;;;11.07;;
43664;SDS011;29263;48.172;11.484;2024-03-08T09:03:26;18.60;;;10.13;;
43664;SDS011;29263;48.172;11.484;2024-03-08T09:05:53;20.10;;;10.93;;
43664;SDS011;29263;48.172;11.484;2024-03-08T09:08:18;19.23;;;9.33;;
43664;SDS011;29263;48.172;11.484;2024-03-08T09:10:44;17.40;;;9.80;;
43664;SDS011;29263;48.172;11.484;2024-03-08T09:13:12;17.83;;;9.57;;
43664;SDS011;29263;48.172;11.484;2024-03-08T09:15:38;19.93;;;10.13;;
43664;SDS011;29263;48.172;11.484;2024-03-08T09:18:05;17.47;;;9.10;;
43664;SDS011;29263;48.172;11.484;2024-03-08T09:20:31;19.27;;;10.07;;
43664;SDS011;29263;48.172;11.484;2024-03-08T09:22:57;18.67;;;9.80;;
43664;SDS011;29263;48.172;11.484;2024-03-08T09:25:23;19.13;;;9.57;;
43664;SDS011;29263;48.172;11.484;2024-03-08T09:27:48;19.37;;;10.00;;
43664;SDS011;29263;48.172;11.484;2024-03-08T09:30:14;15.53;;;8.87;;
43664;SDS011;29263;48.172;11.484;2024-03-08T09:32:40;18.20;;;9.00;;
43664;SDS011;29263;48.172;11.484;2024-03-08T09:35:08;17.03;;;9.17;;
43664;SDS011;29263;48.172;11.484;2024-03-08T09:37:34;17.73;;;9.87;;
43664;SDS011;29263;48.172;11.484;2024-03-08T09:40:00;20.60;;;10.13;;
43664;SDS011;29263;48.172;11.484;2024-03-08T09:42:29;17.88;;;9.77;;
43664;SDS011;29263;48.172;11.484;2024-03-08T09:44:56;17.47;;;8.83;;
43664;SDS011;29263;48.172;11.484;2024-03-08T09:47:23;17.53;;;9.43;;
43664;SDS011;29263;48.172;11.484;2024-03-08T09:49:54;19.03;;;10.17;;
43664;SDS011;29263;48.172;11.484;2024-03-08T09:52:19;21.50;;;9.93;;
43664;SDS011;29263;48.172;11.484;2024-03-08T09:54:45;20.40;;;10.73;;
43664;SDS011;29263;48.172;11.484;2024-03-08T09:57:11;17.23;;;10.33;;
43664;SDS011;29263;48.172;11.484;2024-03-08T09:59:37;22.73;;;11.23;;
43664;SDS011;29263;48.172;11.484;2024-03-08T10:02:03;20.60;;;11.03;;
43664;SDS011;29263;48.172;11.484;2024-03-08T10:04:29;22.70;;;11.50;;
43664;SDS011;29263;48.172;11.484;2024-03-08T10:06:58;21.83;;;11.23;;
43664;SDS011;29263;48.172;11.484;2024-03-08T10:09:25;22.03;;;11.10;;
43664;SDS011;29263;48.172;11.484;2024-03-08T10:11:58;21.50;;;11.37;;
43664;SDS011;29263;48.172;11.484;2024-03-08T10:14:25;21.37;;;10.90;;
43664;SDS011;29263;48.172;11.484;2024-03-08T10:16:53;17.40;;;9.15;;
43664;SDS011;29263;48.172;11.484;2024-03-08T10:19:20;17.93;;;10.33;;
43664;SDS011;29263;48.172;11.484;2024-03-08T10:21:49;19.47;;;9.67;;
43664;SDS011;29263;48.172;11.484;2024-03-08T10:24:15;20.83;;;9.68;;
43664;SDS011;29263;48.172;11.484;2024-03-08T10:26:40;19.73;;;8.90;;
43664;SDS011;29263;48.172;11.484;2024-03-08T10:29:08;16.97;;;8.97;;
43664;SDS011;29263;48.172;11.484;2024-03-08T10:31:34;16.87;;;9.03;;
43664;SDS011;29263;48.172;11.484;2024-03-08T10:34:00;14.17;;;8.33;;
43664;SDS011;29263;48.172;11.484;2024-03-08T10:36:26;16.00;;;8.20;;
43664;SDS011;29263;48.172;11.484;2024-03-08T10:38:53;17.00;;;8.47;;
43664;SDS011;29263;48.172;11.484;2024-03-08T10:41:21;17.10;;;8.43;;
43664;SDS011;29263;48.172;11.484;2024-03-08T10:47:00;16.40;;;8.33;;
43664;SDS011;29263;48.172;11.484;2024-03-08T10:52:31;16.43;;;9.17;;
43664;SDS011;29263;48.172;11.484;2024-03-08T10:54:58;14.37;;;8.67;;
43664;SDS011;29263;48.172;11.484;2024-03-08T10:57:26;17.20;;;8.90;;
43664;SDS011;29263;48.172;11.484;2024-03-08T10:59:52;16.83;;;9.13;;
43664;SDS011;29263;48.172;11.484;2024-03-08T11:02:19;16.50;;;8.83;;
43664;SDS011;29263;48.172;11.484;2024-03-08T11:04:48;16.00;;;7.93;;
43664;SDS011;29263;48.172;11.484;2024-03-08T11:07:14;13.80;;;8.07;;
43664;SDS011;29263;48.172;11.484;2024-03-08T11:09:43;11.88;;;7.40;;
43664;SDS011;29263;48.172;11.484;2024-03-08T11:12:26;16.53;;;8.00;;
43664;SDS011;29263;48.172;11.484;2024-03-08T11:15:00;14.53;;;8.40;;
43664;SDS011;29263;48.172;11.484;2024-03-08T11:19:58;14.27;;;7.67;;
43664;SDS011;29263;48.172;11.484;2024-03-08T11:22:27;15.95;;;8.85;;
43664;SDS011;29263;48.172;11.484;2024-03-08T11:24:59;15.80;;;8.67;;
43664;SDS011;29263;48.172;11.484;2024-03-08T11:27:30;14.93;;;7.90;;
43664;SDS011;29263;48.172;11.484;2024-03-08T11:30:03;15.52;;;8.68;;
43664;SDS011;29263;48.172;11.484;2024-03-08T11:32:36;12.90;;;7.77;;
43664;SDS011;29263;48.172;11.484;2024-03-08T11:35:07;16.50;;;7.97;;
43664;SDS011;29263;48.172;11.484;2024-03-08T11:37:43;17.70;;;9.03;;
43664;SDS011;29263;48.172;11.484;2024-03-08T11:40:12;13.63;;;7.90;;
43664;SDS011;29263;48.172;11.484;2024-03-08T11:42:47;13.50;;;7.23;;
43664;SDS011;29263;48.172;11.484;2024-03-08T11:45:14;13.63;;;8.37;;
43664;SDS011;29263;48.172;11.484;2024-03-08T11:47:42;15.90;;;7.83;;
43664;SDS011;29263;48.172;11.484;2024-03-08T11:50:11;13.15;;;7.28;;
43664;SDS011;29263;48.172;11.484;2024-03-08T11:52:40;13.60;;;8.13;;
43664;SDS011;29263;48.172;11.484;2024-03-08T11:55:07;14.07;;;7.37;;
43664;SDS011;29263;48.172;11.484;2024-03-08T11:57:33;16.40;;;8.00;;
43664;SDS011;29263;48.172;11.484;2024-03-08T11:59:59;14.47;;;8.50;;
43664;SDS011;29263;48.172;11.484;2024-03-08T12:02:34;16.20;;;8.43;;
43664;SDS011;29263;48.172;11.484;2024-03-08T12:05:05;16.33;;;7.90;;
43664;SDS011;29263;48.172;11.484;2024-03-08T12:07:31;16.03;;;8.17;;
43664;SDS011;29263;48.172;11.484;2024-03-08T12:10:16;14.33;;;6.93;;
43664;SDS011;29263;48.172;11.484;2024-03-08T12:12:46;12.77;;;7.47;;
43664;SDS011;29263;48.172;11.484;2024-03-08T12:15:14;14.70;;;7.70;;
43664;SDS011;29263;48.172;11.484;2024-03-08T12:17:40;14.23;;;7.73;;
43664;SDS011;29263;48.172;11.484;2024-03-08T12:20:26;14.63;;;7.93;;
43664;SDS011;29263;48.172;11.484;2024-03-08T12:22:56;14.03;;;7.97;;
43664;SDS011;29263;48.172;11.484;2024-03-08T12:25:22;14.53;;;7.87;;
43664;SDS011;29263;48.172;11.484;2024-03-08T12:28:07;12.60;;;7.23;;
43664;SDS011;29263;48.172;11.484;2024-03-08T12:30:36;13.43;;;7.60;;
43664;SDS011;29263;48.172;11.484;2024-03-08T12:33:13;14.50;;;7.87;;
43664;SDS011;29263;48.172;11.484;2024-03-08T12:35:39;15.10;;;7.87;;
43664;SDS011;29263;48.172;11.484;2024-03-08T12:38:04;15.30;;;8.50;;
43664;SDS011;29263;48.172;11.484;2024-03-08T12:40:33;16.37;;;8.27;;
43664;SDS011;29263;48.172;11.484;2024-03-08T12:43:05;14.90;;;8.17;;
43664;SDS011;29263;48.172;11.484;2024-03-08T12:45:31;14.00;;;8.07;;
43664;SDS011;29263;48.172;11.484;2024-03-08T12:47:57;14.80;;;8.03;;
43664;SDS011;29263;48.172;11.484;2024-03-08T12:50:24;13.93;;;7.33;;
43664;SDS011;29263;48.172;11.484;2024-03-08T12:52:50;13.37;;;7.73;;
43664;SDS011;29263;48.172;11.484;2024-03-08T12:55:17;14.27;;;8.50;;
43664;SDS011;29263;48.172;11.484;2024-03-08T12:57:43;13.30;;;8.43;;
43664;SDS011;29263;48.172;11.484;2024-03-08T13:00:10;13.17;;;7.77;;
43664;SDS011;29263;48.172;11.484;2024-03-08T13:02:44;12.30;;;7.82;;
43664;SDS011;29263;48.172;11.484;2024-03-08T13:05:10;13.40;;;7.47;;
43664;SDS011;29263;48.172;11.484;2024-03-08T13:07:36;14.50;;;8.20;;
43664;SDS011;29263;48.172;11.484;2024-03-08T13:10:02;15.37;;;7.93;;
43664;SDS011;29263;48.172;11.484;2024-03-08T13:12:29;11.57;;;6.93;;
43664;SDS011;29263;48.172;11.484;2024-03-08T13:14:55;13.97;;;7.80;;
43664;SDS011;29263;48.172;11.484;2024-03-08T13:17:22;14.97;;;7.60;;
43664;SDS011;29263;48.172;11.484;2024-03-08T13:19:47;12.23;;;7.33;;
43664;SDS011;29263;48.172;11.484;2024-03-08T13:22:13;13.07;;;7.07;;
43664;SDS011;29263;48.172;11.484;2024-03-08T13:24:44;12.55;;;7.43;;
43664;SDS011;29263;48.172;11.484;2024-03-08T13:27:10;12.73;;;6.97;;
43664;SDS011;29263;48.172;11.484;2024-03-08T13:29:45;14.68;;;7.40;;
43664;SDS011;29263;48.172;11.484;2024-03-08T13:32:12;13.77;;;7.65;;
43664;SDS011;29263;48.172;11.484;2024-03-08T13:34:41;13.95;;;6.82;;
43664;SDS011;29263;48.172;11.484;2024-03-08T13:37:07;12.85;;;7.28;;
43664;SDS011;29263;48.172;11.484;2024-03-08T13:39:34;15.32;;;8.55;;
43664;SDS011;29263;48.172;11.484;2024-03-08T13:42:15;15.65;;;7.75;;
43664;SDS011;29263;48.172;11.484;2024-03-08T13:44:44;10.98;;;7.30;;
43664;SDS011;29263;48.172;11.484;2024-03-08T13:47:11;12.23;;;6.63;;
43664;SDS011;29263;48.172;11.484;2024-03-08T13:49:41;14.20;;;7.55;;
43664;SDS011;29263;48.172;11.484;2024-03-08T13:52:08;13.88;;;8.75;;
43664;SDS011;29263;48.172;11.484;2024-03-08T13:54:34;15.88;;;7.95;;
43664;SDS011;29263;48.172;11.484;2024-03-08T13:57:00;12.20;;;7.57;;
43664;SDS011;29263;48.172;11.484;2024-03-08T13:59:29;12.35;;;7.30;;
43664;SDS011;29263;48.172;11.484;2024-03-08T14:01:56;11.52;;;7.22;;
43664;SDS011;29263;48.172;11.484;2024-03-08T14:04:22;11.80;;;7.38;;
43664;SDS011;29263;48.172;11.484;2024-03-08T14:06:49;10.30;;;6.80;;
43664;SDS011;29263;48.172;11.484;2024-03-08T14:09:14;14.40;;;7.38;;
43664;SDS011;29263;48.172;11.484;2024-03-08T14:11:42;11.35;;;7.60;;
43664;SDS011;29263;48.172;11.484;2024-03-08T14:14:11;12.32;;;6.95;;
43664;SDS011;29263;48.172;11.484;2024-03-08T14:16:40;10.25;;;6.90;;
43664;SDS011;29263;48.172;11.484;2024-03-08T14:19:05;10.60;;;6.55;;
43664;SDS011;29263;48.172;11.484;2024-03-08T14:21:32;12.48;;;7.07;;
43664;SDS011;29263;48.172;11.484;2024-03-08T14:23:58;11.90;;;7.43;;
43664;SDS011;29263;48.172;11.484;2024-03-08T14:26:24;12.18;;;7.45;;
43664;SDS011;29263;48.172;11.484;2024-03-08T14:28:49;11.52;;;7.82;;
43664;SDS011;29263;48.172;11.484;2024-03-08T14:31:19;12.25;;;7.97;;